KEHR

Henderson City-County Airport

Henderson, Kentucky, USA
METAR KEHR 151605Z AUTO 03011KT 10SM -RA OVC007 09/08 A2991 RMK AO2 RAB03 P0000
Observed Flight Rules
Dec-15 @ 16:05 UTC (51 minutes ago) Instrument Flight Rules
Wind Visibility Clouds Conditions
30° at 11 knots 10 miles
  • Overcast at 700' AGL
  • Light Rain
Temperatures Readings Precipitation
Current 9°C / 48°F
Dewpoint 8°C / 46°F
Humidity 94%
Altimeter 29.91" Hg
Pressure 1013 hPa
Elevation 117
Current Rain 0.005
METAR KEHR 151605Z AUTO 03011KT 10SM -RA OVC007 09/08 A2991 RMK AO2 RAB03 P0000
Observed Flight Rules
Dec-15 @ 16:05 UTC
(51 minutes ago)
IFR
Wind Visibility
30° at 11 knots 10 miles
Clouds
  • Overcast at 700' AGL
Conditions
  • Light Rain
Temperature Dewpoint
9°C / 48°F 8°C / 46°F
Humidity Altimeter Pressure
94% 29.91" Hg 1013 hPa
Current Rain
0.005